Flight Number: EUR1035 Duration: 3:00
Departure: Gatwick Airport (EGKK) at 07:45 Distance: 1177 Nm
Arrival: Kiev Borispol (UKBB) at 10:45 Equipment: B737

Weather Information
London / Gatwick Airport, United Kingdom (EGKK) 51-09N 000-11W 0M May 23, 2018 - 08:20 PM EDT / 2018.05.24 0020 UTC
Wind: from the N (010 degrees) at 9 MPH (8 KT):0
Visibility: 5 mile(s):0 Weather: light rain Temperature: 55 F (13 C) Dew Point: 50 F (10 C) Relative Humidity: 81% Pressure (altimeter): 30.15 in. Hg (1021 hPa)
ob: EGKK 240020Z 01008KT 9000 -RA NSC 13/10 Q1021 cycle: 0
Sunrise: 04:02 Sunset: 19:52 (UTC)

Boryspil, Ukraine (UKBB) 50-20N 030-58E 122M May 23, 2018 - 08:30 PM EDT / 2018.05.24 0030 UTC
Wind: from the N (360 degrees) at 4 MPH (4 KT):0
Visibility: greater than 7 mile(s):0 Temperature: 51 F (11 C) Dew Point: 48 F (9 C) Relative Humidity: 87% Pressure (altimeter): 30.09 in. Hg (1019 hPa)
ob: UKBB 240030Z 36002MPS CAVOK 11/09 Q1019 R88/CLRD// NOSIG cycle: 0
Sunrise: 02:01 Sunset: 17:44 (UTC)

TAF:2018/05/23 18:12 TAF TAF UKBB 231700Z 2318/2418 VRB02MPS 9999 SCT040 TX28/2413Z TN11/2403Z TEMPO 2321/2405 2000 BR SCT006 BECMG 2405/2407 02004G09MPS 9999 BKN030 TEMPO 2409/2418 2100 -SHRA BKN012 SCT025CB PROB40 TEMPO 2410/2418 VRB10G15MPS 1200 TSRA BKN007 BKN015CB

Previous Pireps for this route
Date Aircraft Flight time Fuel used Landing rate On time
2012-09-08B73702.5715724-592Yes
2012-12-05B73703.5118267-305No
2013-03-31B7373.03169160No
2013-07-28B73703.0514395-344Yes
2013-08-08B73703.0617464-147Yes
2013-08-14B73703.2015450-151No
2013-09-28B7372.54156000No
2013-10-11B73703.1417750-300No
(pireps marked green are flown by you)

Route map